Time;durP1;ratioP1;P1;durP2;ratioP2;P2;SDS_P1;SDS_P2;PMS_P1;PMS_P2;Temp;Humidity;BMP_temperature;BMP_pressure;BME280_temperature;BME280_humidity;BME280_pressure;Samples;Min_cycle;Max_cycle;Signal;HPM_P1;HPM_P2
2023/12/24 00:02:19;;;;;;;0.63;0.30;;;;;;;8.92;100.00;99376.13;5159017;28;20029;-77
2023/12/24 00:04:52;;;;;;;0.30;0.30;;;;;;;8.96;100.00;99388.09;5163599;28;20053;-77
2023/12/24 00:07:22;;;;;;;1.90;0.30;;;;;;;8.95;100.00;99376.84;5166119;28;20029;-77
2023/12/24 00:09:52;;;;;;;0.95;0.30;;;;;;;8.92;100.00;99382.16;5163926;28;21881;-77
2023/12/24 00:12:23;;;;;;;0.40;0.20;;;;;;;8.94;100.00;99382.97;5164818;28;20042;-77
2023/12/24 00:14:54;;;;;;;1.80;0.68;;;;;;;8.99;100.00;99378.38;5162654;28;20041;-77
2023/12/24 00:17:24;;;;;;;0.30;0.30;;;;;;;8.98;100.00;99387.09;5165812;28;20140;-77
2023/12/24 00:19:54;;;;;;;0.32;0.32;;;;;;;8.98;100.00;99381.03;5163693;28;20032;-77
2023/12/24 00:22:28;;;;;;;2.67;0.20;;;;;;;8.98;100.00;99381.91;5166715;28;20387;-77
2023/12/24 00:24:58;;;;;;;0.30;0.30;;;;;;;9.00;100.00;99385.28;5166353;28;20048;-78
2023/12/24 00:27:28;;;;;;;0.95;0.30;;;;;;;9.07;100.00;99384.03;5166959;28;20018;-77
2023/12/24 00:29:59;;;;;;;1.05;0.20;;;;;;;9.03;100.00;99377.28;5160242;28;20030;-77
2023/12/24 00:32:29;;;;;;;0.35;0.22;;;;;;;9.08;100.00;99377.09;5166052;28;20025;-77
2023/12/24 00:34:59;;;;;;;0.10;0.10;;;;;;;9.11;100.00;99385.59;5165771;28;20021;-77
2023/12/24 00:37:29;;;;;;;0.10;0.10;;;;;;;8.93;100.00;99383.03;5164171;28;20021;-77
2023/12/24 00:40:00;;;;;;;0.68;0.30;;;;;;;8.99;100.00;99378.38;5162228;28;20038;-77
2023/12/24 00:42:30;;;;;;;0.30;0.25;;;;;;;9.03;100.00;99385.13;5165977;28;20365;-77
2023/12/24 00:45:00;;;;;;;0.45;0.30;;;;;;;9.04;100.00;99375.56;5162967;28;20027;-77
2023/12/24 00:47:31;;;;;;;1.08;0.22;;;;;;;9.02;100.00;99378.22;5166057;28;20030;-77
2023/12/24 00:50:01;;;;;;;2.30;0.50;;;;;;;9.06;100.00;99371.09;5162898;28;20439;-77
2023/12/24 00:52:32;;;;;;;0.98;0.40;;;;;;;9.03;100.00;99374.69;5164413;28;20281;-77
2023/12/24 00:55:04;;;;;;;0.38;0.28;;;;;;;9.03;100.00;99379.91;5159695;28;20053;-77
2023/12/24 00:57:37;;;;;;;0.57;0.40;;;;;;;9.04;100.00;99381.59;5160030;28;20284;-77
2023/12/24 01:00:08;;;;;;;0.60;0.40;;;;;;;9.01;100.00;99381.75;5162847;28;20484;-77
2023/12/24 01:02:39;;;;;;;0.70;0.38;;;;;;;8.97;100.00;99377.59;5162295;28;20030;-78
2023/12/24 01:05:09;;;;;;;0.65;0.30;;;;;;;9.05;100.00;99372.84;5169858;28;20418;-77
2023/12/24 01:07:40;;;;;;;0.52;0.40;;;;;;;8.97;100.00;99377.59;5162400;28;20056;-77
2023/12/24 01:10:11;;;;;;;0.70;0.47;;;;;;;8.99;100.00;99372.28;5145614;28;20050;-77
2023/12/24 01:12:43;;;;;;;0.88;0.50;;;;;;;9.02;100.00;99373.00;5157845;28;20042;-77
2023/12/24 01:15:13;;;;;;;1.38;0.45;;;;;;;9.10;100.00;99376.06;5164629;28;20022;-77
2023/12/24 01:17:44;;;;;;;1.73;0.57;;;;;;;9.09;100.00;99369.16;5161630;28;20045;-77
2023/12/24 01:20:15;;;;;;;0.85;0.63;;;;;;;9.06;100.00;99376.31;5162900;28;20121;-77
2023/12/24 01:22:46;;;;;;;1.05;0.73;;;;;;;9.03;100.00;99390.31;5166731;28;20036;-77
2023/12/24 01:25:17;;;;;;;1.48;0.75;;;;;;;9.04;100.00;99372.94;5160928;28;20029;-77
2023/12/24 01:27:47;;;;;;;2.35;0.85;;;;;;;8.97;100.00;99385.41;5162785;28;20025;-77
2023/12/24 01:30:18;;;;;;;1.17;0.88;;;;;;;8.99;100.00;99383.59;5165130;28;20034;-77
2023/12/24 01:32:48;;;;;;;1.92;1.00;;;;;;;9.03;100.00;99389.50;5165406;28;20558;-77
2023/12/24 01:35:18;;;;;;;1.95;0.82;;;;;;;9.01;100.00;99389.56;5165962;28;20045;-77
2023/12/24 01:37:49;;;;;;;1.98;1.10;;;;;;;9.04;100.00;99397.22;5163512;28;20022;-77
2023/12/24 01:40:19;;;;;;;1.77;1.10;;;;;;;9.02;100.00;99387.78;5168086;28;20026;-78
2023/12/24 01:42:49;;;;;;;2.25;1.33;;;;;;;8.97;100.00;99388.03;5163970;28;20029;-77
2023/12/24 01:45:20;;;;;;;2.33;1.40;;;;;;;9.09;100.00;99403.03;5166925;28;20030;-77
2023/12/24 01:47:50;;;;;;;3.10;1.45;;;;;;;9.07;100.00;99397.06;5165502;28;20479;-77
2023/12/24 01:50:21;;;;;;;4.07;1.60;;;;;;;9.02;100.00;99399.06;5165023;28;20039;-77
2023/12/24 01:52:52;;;;;;;4.57;1.88;;;;;;;9.05;100.00;99393.69;5166199;28;20034;-77
2023/12/24 01:55:22;;;;;;;1.92;1.50;;;;;;;9.04;100.00;99392.00;5163665;28;20030;-77
2023/12/24 01:57:53;;;;;;;3.17;1.70;;;;;;;8.94;100.00;99392.53;5168153;28;20631;-78
2023/12/24 02:00:23;;;;;;;4.28;1.70;;;;;;;9.03;100.00;99394.72;5164536;28;20041;-77
2023/12/24 02:02:55;;;;;;;4.63;1.65;;;;;;;8.99;100.00;99396.59;5161996;28;20830;-77
2023/12/24 02:05:26;;;;;;;3.13;1.80;;;;;;;9.03;100.00;99395.53;5162792;28;20200;-77
2023/12/24 02:07:56;;;;;;;2.60;1.60;;;;;;;9.02;100.00;99399.06;5164834;28;20026;-76
2023/12/24 02:10:27;;;;;;;2.50;1.65;;;;;;;8.97;100.00;99395.84;5165821;28;20158;-77
2023/12/24 02:12:58;;;;;;;1.95;1.52;;;;;;;8.99;100.00;99393.16;5166012;28;20060;-77
2023/12/24 02:15:28;;;;;;;2.30;1.40;;;;;;;8.86;100.00;99394.66;5164148;28;20026;-77
2023/12/24 02:17:59;;;;;;;2.42;1.27;;;;;;;8.91;100.00;99390.91;5168025;28;20041;-77
2023/12/24 02:20:30;;;;;;;2.65;1.70;;;;;;;8.92;100.00;99397.81;5169936;28;20030;-77
2023/12/24 02:23:01;;;;;;;2.70;1.60;;;;;;;8.99;100.00;99393.16;5167510;28;20435;-77
2023/12/24 02:25:31;;;;;;;5.15;1.60;;;;;;;8.95;100.00;99396.81;5166056;28;20037;-77
2023/12/24 02:28:10;;;;;;;2.17;1.17;;;;;;;8.87;100.00;99385.94;5157932;28;20026;-76
2023/12/24 02:30:44;;;;;;;2.30;1.35;;;;;;;8.90;100.00;99384.00;5164864;28;20072;-77
2023/12/24 02:33:17;;;;;;;4.45;1.40;;;;;;;8.90;100.00;99385.78;5168967;28;20116;-77
2023/12/24 02:35:49;;;;;;;2.63;1.10;;;;;;;8.93;100.00;99386.47;5167897;28;20056;-77
2023/12/24 02:38:19;;;;;;;1.88;1.10;;;;;;;8.93;100.00;99373.44;5166873;28;20030;-77
2023/12/24 02:40:49;;;;;;;3.28;1.30;;;;;;;8.84;100.00;99376.50;5163747;28;20124;-77
2023/12/24 02:43:20;;;;;;;2.00;1.08;;;;;;;8.86;100.00;99377.25;5164586;28;20087;-77
2023/12/24 02:45:50;;;;;;;1.80;1.23;;;;;;;8.93;100.00;99373.44;5179151;28;20034;-77
2023/12/24 02:48:20;;;;;;;2.10;1.02;;;;;;;8.92;100.00;99369.13;5165285;28;20567;-77
2023/12/24 02:50:51;;;;;;;2.00;1.20;;;;;;;8.88;100.00;99372.00;5167378;28;20030;-76
2023/12/24 02:53:21;;;;;;;1.10;0.90;;;;;;;8.85;100.00;99359.94;5164478;28;20426;-78
2023/12/24 02:55:52;;;;;;;3.05;1.10;;;;;;;8.91;100.00;99362.25;5160715;28;20468;-77
2023/12/24 02:58:22;;;;;;;2.17;1.10;;;;;;;8.86;100.00;99363.41;5164870;28;20033;-77
2023/12/24 03:00:52;;;;;;;2.30;1.10;;;;;;;8.92;100.00;99358.72;5162355;28;20073;-77
2023/12/24 03:03:22;;;;;;;3.45;1.00;;;;;;;8.92;100.00;99356.13;5166537;28;20660;-78
2023/12/24 03:05:53;;;;;;;2.22;1.08;;;;;;;8.92;100.00;99350.09;5165951;28;20038;-76
2023/12/24 03:08:23;;;;;;;1.88;1.20;;;;;;;8.89;100.00;99345.03;5167035;28;20113;-77
2023/12/24 03:10:53;;;;;;;1.23;1.10;;;;;;;8.93;100.00;99344.78;5177931;28;20054;-77
2023/12/24 03:13:24;;;;;;;2.72;0.98;;;;;;;8.99;100.00;99347.09;5164935;28;20195;-77
2023/12/24 03:15:54;;;;;;;1.27;1.10;;;;;;;9.00;100.00;99342.72;5167556;28;20022;-78
2023/12/24 03:18:24;;;;;;;2.08;0.95;;;;;;;8.94;100.00;99338.69;5184430;28;20129;-78
2023/12/24 03:20:54;;;;;;;2.10;1.30;;;;;;;8.94;100.00;99333.47;5166970;28;20029;-77
2023/12/24 03:23:25;;;;;;;3.47;1.10;;;;;;;8.93;100.00;99329.13;5165873;28;20096;-78
2023/12/24 03:25:55;;;;;;;2.38;1.10;;;;;;;9.00;100.00;99327.09;5164950;28;20565;-78
2023/12/24 03:28:25;;;;;;;2.95;1.30;;;;;;;8.94;100.00;99328.25;5167325;28;20041;-77
2023/12/24 03:30:56;;;;;;;2.40;1.33;;;;;;;8.91;100.00;99319.75;5163815;28;20255;-78
2023/12/24 03:33:26;;;;;;;2.85;1.60;;;;;;;8.93;100.00;99316.13;5166253;28;20037;-77
2023/12/24 03:35:57;;;;;;;2.28;1.52;;;;;;;8.92;100.00;99324.84;5167418;28;20476;-77
2023/12/24 03:38:27;;;;;;;2.65;1.88;;;;;;;9.03;100.00;99316.53;5166497;28;21797;-77
2023/12/24 03:40:58;;;;;;;1.58;1.27;;;;;;;8.96;100.00;99323.81;5165571;28;20030;-78
2023/12/24 03:43:29;;;;;;;2.95;1.60;;;;;;;9.00;100.00;99317.53;5161849;28;20032;-77
2023/12/24 03:45:59;;;;;;;2.42;1.50;;;;;;;9.01;100.00;99321.81;5164374;28;20030;-77
2023/12/24 03:48:32;;;;;;;3.30;1.65;;;;;;;9.01;100.00;99327.03;5159501;28;20372;-77
2023/12/24 03:51:02;;;;;;;2.95;1.85;;;;;;;8.99;100.00;99328.00;5164333;28;20116;-77
2023/12/24 03:53:32;;;;;;;4.72;1.98;;;;;;;9.06;100.00;99326.81;5161343;28;20126;-77
2023/12/24 03:56:04;;;;;;;2.38;1.95;;;;;;;9.05;100.00;99328.56;5165463;28;20475;-78
2023/12/24 03:58:34;;;;;;;3.65;1.88;;;;;;;9.06;100.00;99332.00;5163349;28;20030;-76
2023/12/24 04:01:11;;;;;;;3.17;2.00;;;;;;;9.08;100.00;99330.19;5166094;28;20472;-77
2023/12/24 04:03:41;;;;;;;5.53;2.22;;;;;;;9.04;100.00;99324.25;5164857;28;20072;-78
2023/12/24 04:06:15;;;;;;;4.78;2.58;;;;;;;9.02;100.00;99315.69;5164166;28;20030;-76
2023/12/24 04:08:45;;;;;;;5.10;2.60;;;;;;;9.05;100.00;99314.69;5161755;28;20034;-78
2023/12/24 04:11:17;;;;;;;4.05;2.45;;;;;;;9.00;100.00;99327.09;5162764;28;20030;-77
2023/12/24 04:13:47;;;;;;;3.78;2.55;;;;;;;9.01;100.00;99339.19;5162501;28;20036;-77
2023/12/24 04:16:17;;;;;;;6.10;2.90;;;;;;;9.02;100.00;99326.09;5164647;28;20034;-78
2023/12/24 04:18:47;;;;;;;3.97;2.67;;;;;;;9.05;100.00;99319.91;5163818;28;20029;-78
2023/12/24 04:21:18;;;;;;;5.35;2.70;;;;;;;9.00;100.00;99322.72;5163996;28;20033;-77
2023/12/24 04:23:48;;;;;;;5.63;3.00;;;;;;;8.97;100.00;99327.25;5166448;28;20056;-77
2023/12/24 04:26:19;;;;;;;5.78;3.33;;;;;;;9.02;100.00;99320.03;5163254;28;20033;-77
2023/12/24 04:28:49;;;;;;;4.72;3.20;;;;;;;9.03;100.00;99317.38;5165274;28;20021;-78
2023/12/24 04:31:19;;;;;;;4.88;3.60;;;;;;;9.04;100.00;99326.88;5160781;28;20044;-77
2023/12/24 04:33:50;;;;;;;5.45;3.30;;;;;;;9.02;100.00;99327.84;5164443;28;20030;-77
2023/12/24 04:36:20;;;;;;;6.18;4.00;;;;;;;9.03;100.00;99322.56;5162138;28;20439;-78
2023/12/24 04:38:50;;;;;;;7.70;3.90;;;;;;;9.03;100.00;99325.19;5164959;28;20108;-77
2023/12/24 04:41:21;;;;;;;6.15;3.97;;;;;;;9.12;100.00;99323.88;5162194;28;20113;-77
2023/12/24 04:43:51;;;;;;;6.93;4.32;;;;;;;9.13;100.00;99319.44;5164745;28;20396;-77
2023/12/24 04:46:21;;;;;;;8.40;4.55;;;;;;;9.11;100.00;99314.38;5162516;28;20121;-77
2023/12/24 04:48:52;;;;;;;8.73;4.72;;;;;;;9.13;100.00;99309.94;5181832;28;20025;-77
2023/12/24 04:51:22;;;;;;;10.43;4.90;;;;;;;9.09;100.00;99304.03;5162327;28;20536;-77
2023/12/24 04:53:52;;;;;;;8.35;5.30;;;;;;;9.03;100.00;99296.53;5166349;28;20036;-77
2023/12/24 04:56:23;;;;;;;8.63;5.72;;;;;;;9.04;100.00;99306.03;5161013;28;20483;-77
2023/12/24 04:58:53;;;;;;;11.38;6.38;;;;;;;9.07;100.00;99298.03;5168225;28;20172;-77
2023/12/24 05:01:24;;;;;;;10.07;6.05;;;;;;;9.04;100.00;99298.19;5161465;28;20037;-77
2023/12/24 05:03:54;;;;;;;9.40;6.13;;;;;;;9.11;100.00;99299.59;5167752;28;20041;-77
2023/12/24 05:06:28;;;;;;;12.23;6.60;;;;;;;9.10;100.00;99302.28;5165632;28;20056;-77
2023/12/24 05:08:58;;;;;;;10.27;6.70;;;;;;;9.07;100.00;99300.66;5159848;28;20026;-77
2023/12/24 05:11:28;;;;;;;11.60;6.65;;;;;;;9.13;100.00;99293.38;5165560;28;20042;-77
2023/12/24 05:14:00;;;;;;;11.45;6.97;;;;;;;9.14;100.00;99289.84;5161720;28;20065;-78
2023/12/24 05:16:30;;;;;;;10.38;7.20;;;;;;;9.17;100.00;99283.66;5168579;28;20634;-77
2023/12/24 05:19:01;;;;;;;11.65;7.38;;;;;;;9.10;100.00;99291.84;5168093;28;20022;-77
2023/12/24 05:21:31;;;;;;;15.07;7.70;;;;;;;9.20;100.00;99283.50;5166667;28;20041;-77
2023/12/24 05:24:01;;;;;;;15.77;7.43;;;;;;;9.24;100.00;99283.25;5167924;28;20236;-77
2023/12/24 05:26:31;;;;;;;10.40;7.00;;;;;;;9.20;100.00;99280.88;5167980;28;20034;-78
2023/12/24 05:29:02;;;;;;;11.05;7.20;;;;;;;9.19;100.00;99272.25;5167679;28;20534;-77
2023/12/24 05:31:37;;;;;;;9.65;6.60;;;;;;;9.21;100.00;99265.19;5165877;28;20034;-77
2023/12/24 05:34:08;;;;;;;10.68;6.10;;;;;;;9.16;100.00;99274.16;5181899;28;20550;-77
2023/12/24 05:36:39;;;;;;;10.23;5.78;;;;;;;9.19;100.00;99276.59;5169102;28;20042;-77
2023/12/24 05:39:11;;;;;;;11.95;5.57;;;;;;;9.19;100.00;99276.59;5171080;28;20034;-77
2023/12/24 05:41:44;;;;;;;10.05;5.50;;;;;;;9.26;100.00;99262.31;5165047;28;20019;-76
2023/12/24 05:44:15;;;;;;;9.25;5.20;;;;;;;9.31;100.00;99274.19;5168683;28;20161;-77
2023/12/24 05:46:50;;;;;;;7.68;4.78;;;;;;;9.27;100.00;99264.84;5167484;28;20569;-77
2023/12/24 05:49:20;;;;;;;9.60;4.35;;;;;;;9.25;100.00;99260.63;5167431;28;20033;-76
2023/12/24 05:51:51;;;;;;;5.88;3.95;;;;;;;9.30;100.00;99271.69;5168867;28;20038;-77
2023/12/24 05:54:21;;;;;;;5.07;3.40;;;;;;;9.27;100.00;99262.25;5167867;28;20037;-75
2023/12/24 05:56:51;;;;;;;6.75;3.28;;;;;;;9.25;100.00;99268.44;5169791;28;20742;-77
2023/12/24 05:59:22;;;;;;;6.45;3.20;;;;;;;9.27;100.00;99266.59;5171050;28;20034;-75
2023/12/24 06:01:53;;;;;;;4.97;2.70;;;;;;;9.21;100.00;99259.97;5168752;28;20462;-77
2023/12/24 06:04:23;;;;;;;5.22;2.92;;;;;;;9.27;100.00;99258.78;5170635;28;20030;-76
2023/12/24 06:06:53;;;;;;;6.32;2.47;;;;;;;9.27;100.00;99266.59;5165319;28;20443;-77
2023/12/24 06:09:24;;;;;;;3.78;2.50;;;;;;;9.34;100.00;99260.16;5169179;28;20033;-76
2023/12/24 06:11:54;;;;;;;4.38;2.17;;;;;;;9.32;100.00;99255.03;5167113;28;20022;-77
2023/12/24 06:14:24;;;;;;;2.25;1.75;;;;;;;9.32;100.00;99268.06;5165906;28;20034;-78
2023/12/24 06:16:55;;;;;;;3.25;1.58;;;;;;;9.35;100.00;99267.06;5168093;28;20515;-77
2023/12/24 06:19:25;;;;;;;2.03;1.48;;;;;;;9.38;100.00;99261.69;5167686;28;20085;-76
2023/12/24 06:21:55;;;;;;;1.85;1.20;;;;;;;9.30;100.00;99259.47;5166896;28;20023;-77
2023/12/24 06:24:26;;;;;;;2.10;1.15;;;;;;;9.44;100.00;99258.75;5163405;28;20029;-75
2023/12/24 06:26:56;;;;;;;1.80;1.23;;;;;;;9.37;100.00;99263.47;5160034;28;20077;-77
2023/12/24 06:29:26;;;;;;;1.33;0.80;;;;;;;9.38;100.00;99261.69;5162002;28;20030;-77
2023/12/24 06:31:56;;;;;;;1.20;0.98;;;;;;;9.45;100.00;99258.69;5163133;28;20391;-77
2023/12/24 06:34:27;;;;;;;1.17;0.93;;;;;;;9.47;100.00;99256.84;5163565;28;20105;-76
2023/12/24 06:36:57;;;;;;;3.03;0.90;;;;;;;9.51;100.00;99266.19;5163143;28;20097;-77
2023/12/24 06:39:27;;;;;;;1.45;0.70;;;;;;;9.53;100.00;99260.91;5170238;28;20030;-77
2023/12/24 06:41:58;;;;;;;1.75;0.68;;;;;;;9.56;100.00;99248.56;5165654;28;20018;-77
2023/12/24 06:44:28;;;;;;;1.38;0.40;;;;;;;9.51;100.00;99249.72;5166983;28;20036;-76
2023/12/24 06:46:59;;;;;;;1.40;0.52;;;;;;;9.50;100.00;99254.06;5163404;28;20550;-77
2023/12/24 06:49:29;;;;;;;1.40;0.57;;;;;;;9.46;100.00;99259.56;5163824;28;20045;-77
2023/12/24 06:51:59;;;;;;;0.73;0.45;;;;;;;9.55;100.00;99264.25;5161861;28;20129;-78
2023/12/24 06:54:29;;;;;;;0.70;0.57;;;;;;;9.48;100.00;99255.91;5165622;28;20067;-77
2023/12/24 06:57:00;;;;;;;1.20;0.60;;;;;;;9.52;100.00;99254.00;5163068;28;20041;-77
2023/12/24 06:59:30;;;;;;;0.93;0.40;;;;;;;9.49;100.00;99254.16;5165421;28;20045;-77
2023/12/24 07:02:01;;;;;;;3.38;0.47;;;;;;;9.46;100.00;99249.94;5163057;28;20026;-78
2023/12/24 07:04:31;;;;;;;1.08;0.40;;;;;;;9.50;100.00;99242.81;5167916;28;20040;-77
2023/12/24 07:07:01;;;;;;;1.40;0.40;;;;;;;9.55;100.00;99246.88;5165305;28;20515;-77
2023/12/24 07:09:32;;;;;;;0.40;0.40;;;;;;;9.57;100.00;99257.19;5162930;28;20041;-77
2023/12/24 07:12:02;;;;;;;1.55;0.40;;;;;;;9.58;100.00;99243.25;5163960;28;20034;-77
2023/12/24 07:14:32;;;;;;;1.08;0.50;;;;;;;9.53;100.00;99245.25;5162362;28;20029;-77
2023/12/24 07:17:03;;;;;;;0.77;0.50;;;;;;;9.54;100.00;99244.31;5165977;28;20578;-77
2023/12/24 07:19:33;;;;;;;3.00;0.70;;;;;;;9.55;100.00;99248.63;5167457;28;20080;-77
2023/12/24 07:22:04;;;;;;;2.15;0.60;;;;;;;9.59;100.00;99242.31;5167230;28;20014;-78
2023/12/24 07:24:34;;;;;;;1.50;0.60;;;;;;;9.60;100.00;99247.47;5166079;28;20034;-77
2023/12/24 07:27:04;;;;;;;1.90;0.57;;;;;;;9.61;100.00;99238.72;5165569;28;20030;-77
2023/12/24 07:29:34;;;;;;;2.22;0.65;;;;;;;9.60;100.00;99239.63;5164892;28;20025;-77
2023/12/24 07:32:05;;;;;;;1.48;0.65;;;;;;;9.64;100.00;99229.91;5165459;28;20084;-77
2023/12/24 07:34:35;;;;;;;2.25;0.82;;;;;;;9.61;100.00;99233.50;5181884;28;20029;-77
2023/12/24 07:37:06;;;;;;;1.33;0.43;;;;;;;9.66;100.00;99226.25;5166397;28;20121;-77
2023/12/24 07:39:36;;;;;;;1.90;0.60;;;;;;;9.65;100.00;99219.34;5169986;28;20053;-77
2023/12/24 07:42:07;;;;;;;1.23;0.70;;;;;;;9.69;100.00;99220.03;5167414;28;20018;-78
2023/12/24 07:44:38;;;;;;;1.55;0.60;;;;;;;9.71;100.00;99228.63;5164653;28;20404;-79
2023/12/24 07:47:08;;;;;;;4.80;1.40;;;;;;;9.74;100.00;99218.03;5167090;28;20021;-77
2023/12/24 07:49:38;;;;;;;1.42;0.60;;;;;;;9.72;100.00;99209.44;5166814;28;20056;-77
2023/12/24 07:52:08;;;;;;;2.65;1.17;;;;;;;9.71;100.00;99210.38;5168550;28;20372;-77
2023/12/24 07:54:39;;;;;;;7.35;2.55;;;;;;;9.68;100.00;99218.38;5169471;28;20128;-78
2023/12/24 07:57:09;;;;;;;6.50;2.05;;;;;;;9.61;100.00;99217.00;5183008;28;20492;-77
2023/12/24 07:59:40;;;;;;;5.70;2.13;;;;;;;9.63;100.00;99212.56;5165777;28;20034;-78
2023/12/24 08:02:10;;;;;;;4.40;1.10;;;;;;;9.70;100.00;99206.94;5166527;28;20018;-78
2023/12/24 08:04:43;;;;;;;1.42;0.80;;;;;;;9.70;100.00;99196.50;5166647;28;20034;-77
2023/12/24 08:07:14;;;;;;;0.95;0.50;;;;;;;9.76;100.00;99195.31;5165235;28;20575;-77
2023/12/24 08:09:44;;;;;;;0.70;0.40;;;;;;;9.75;100.00;99198.84;5156269;28;20030;-77
2023/12/24 08:12:15;;;;;;;1.00;0.40;;;;;;;9.73;100.00;99195.47;5173294;28;20479;-77
2023/12/24 08:14:45;;;;;;;3.55;0.80;;;;;;;9.76;100.00;99190.09;5161265;28;20139;-77
2023/12/24 08:17:15;;;;;;;1.02;0.50;;;;;;;9.87;100.00;99198.19;5165901;28;20038;-77
2023/12/24 08:19:46;;;;;;;0.55;0.30;;;;;;;9.83;100.00;99194.88;5162245;28;20033;-77
2023/12/24 08:22:16;;;;;;;0.55;0.30;;;;;;;9.89;100.00;99196.31;5165632;28;20022;-77
2023/12/24 08:24:48;;;;;;;0.15;0.15;;;;;;;9.92;100.00;99189.19;5166375;28;20071;-77
2023/12/24 08:27:18;;;;;;;0.40;0.20;;;;;;;9.94;100.00;99196.91;5164873;28;20109;-77
2023/12/24 08:29:48;;;;;;;0.70;0.55;;;;;;;9.96;100.00;99190.69;5160187;28;20149;-77
2023/12/24 08:32:18;;;;;;;0.98;0.30;;;;;;;10.03;100.00;99188.63;5164819;28;20025;-77
2023/12/24 08:34:49;;;;;;;0.73;0.50;;;;;;;10.00;100.00;99186.97;5160288;28;20040;-78
2023/12/24 08:37:19;;;;;;;0.85;0.40;;;;;;;10.08;100.00;99187.44;5158419;28;20026;-77
2023/12/24 08:39:49;;;;;;;0.65;0.38;;;;;;;10.11;100.00;99191.63;5160566;28;20036;-77
2023/12/24 08:42:19;;;;;;;0.20;0.20;;;;;;;10.14;100.00;99183.66;5164469;28;20539;-77
2023/12/24 08:44:50;;;;;;;0.82;0.20;;;;;;;10.12;100.00;99183.72;5162510;28;20033;-77
2023/12/24 08:47:20;;;;;;;0.68;0.38;;;;;;;10.21;100.00;99185.84;5165033;28;20033;-77
2023/12/24 08:49:50;;;;;;;0.25;0.20;;;;;;;10.18;100.00;99188.59;5159488;28;20491;-77
2023/12/24 08:52:21;;;;;;;1.30;0.30;;;;;;;10.15;100.00;99194.00;5168610;28;20036;-77
2023/12/24 08:54:51;;;;;;;0.50;0.40;;;;;;;10.21;100.00;99203.25;5165231;28;20037;-77
2023/12/24 08:57:21;;;;;;;1.73;1.00;;;;;;;10.26;100.00;99206.44;5167377;28;20038;-77
2023/12/24 08:59:52;;;;;;;0.25;0.20;;;;;;;10.28;100.00;99195.00;5161558;28;20113;-77
2023/12/24 09:02:22;;;;;;;0.20;0.15;;;;;;;10.32;100.00;99200.91;5163951;28;20092;-77
2023/12/24 09:04:52;;;;;;;0.32;0.10;;;;;;;10.30;100.00;99184.44;5160527;28;20377;-77
2023/12/24 09:07:23;;;;;;;0.35;0.20;;;;;;;10.39;100.00;99181.31;5166744;28;20040;-77
2023/12/24 09:09:53;;;;;;;0.30;0.20;;;;;;;10.39;100.00;99194.38;5163439;28;20037;-78
2023/12/24 09:12:23;;;;;;;1.95;0.40;;;;;;;10.44;100.00;99189.72;5164071;28;20064;-77
2023/12/24 09:14:53;;;;;;;1.65;0.70;;;;;;;10.36;100.00;99191.94;5177975;28;20022;-77
2023/12/24 09:17:24;;;;;;;1.38;0.40;;;;;;;10.44;100.00;99197.56;5164340;28;20217;-77
2023/12/24 09:19:54;;;;;;;0.40;0.35;;;;;;;10.50;100.00;99189.41;5162522;28;20061;-77
2023/12/24 09:22:24;;;;;;;0.30;0.30;;;;;;;10.52;100.00;99182.31;5168769;28;20080;-77
2023/12/24 09:24:55;;;;;;;1.00;0.40;;;;;;;10.54;100.00;99183.06;5159214;28;20034;-77
2023/12/24 09:27:25;;;;;;;0.93;0.60;;;;;;;10.56;100.00;99189.91;5161998;28;20038;-77
2023/12/24 09:29:55;;;;;;;3.10;0.57;;;;;;;10.66;100.00;99190.19;5164025;28;20053;-77
2023/12/24 09:32:25;;;;;;;0.82;0.40;;;;;;;10.62;100.00;99196.50;5166484;28;20053;-77
2023/12/24 09:34:56;;;;;;;0.60;0.50;;;;;;;10.63;100.00;99200.81;5162979;28;20117;-77
2023/12/24 09:37:26;;;;;;;0.60;0.30;;;;;;;10.71;100.00;99193.38;5170816;28;20467;-77
2023/12/24 09:39:57;;;;;;;0.57;0.30;;;;;;;10.69;100.00;99184.78;5162969;28;20033;-77
2023/12/24 09:42:27;;;;;;;0.30;0.30;;;;;;;10.77;100.00;99182.56;5165770;28;20025;-78
2023/12/24 09:44:57;;;;;;;0.38;0.35;;;;;;;10.82;100.00;99181.38;5158512;28;20034;-77
2023/12/24 09:47:29;;;;;;;0.55;0.40;;;;;;;10.81;100.00;99184.06;5166173;28;20139;-77
2023/12/24 09:50:00;;;;;;;0.98;0.35;;;;;;;10.94;100.00;99182.41;5165120;28;20054;-77
2023/12/24 09:52:33;;;;;;;1.00;0.55;;;;;;;10.95;100.00;99192.78;5163226;28;20169;-77
2023/12/24 09:55:03;;;;;;;0.90;0.50;;;;;;;10.97;100.00;99197.91;5160671;28;20117;-77
2023/12/24 09:57:34;;;;;;;1.08;0.52;;;;;;;11.08;100.00;99186.75;5162059;28;20184;-77
2023/12/24 10:00:08;;;;;;;0.95;0.32;;;;;;;11.11;100.00;99188.34;5160311;28;20099;-77
2023/12/24 10:02:38;;;;;;;0.35;0.20;;;;;;;11.13;100.00;99179.44;5168528;28;20033;-77
2023/12/24 10:05:11;;;;;;;0.32;0.28;;;;;;;11.17;100.00;99172.28;5171165;28;20395;-77
2023/12/24 10:07:45;;;;;;;0.75;0.30;;;;;;;11.19;100.00;99171.25;5165333;28;20033;-77
2023/12/24 10:10:28;;;;;;;0.28;0.20;;;;;;;11.21;100.00;99169.38;5171701;28;20483;-77
2023/12/24 10:13:05;;;;;;;0.32;0.20;;;;;;;11.28;100.00;99181.16;5166123;28;20025;-77
2023/12/24 10:15:38;;;;;;;0.38;0.30;;;;;;;11.25;100.00;99194.41;5170674;28;20026;-77
2023/12/24 10:18:16;;;;;;;0.45;0.35;;;;;;;11.26;100.00;99197.88;5165785;28;20079;-77
2023/12/24 10:20:47;;;;;;;0.20;0.20;;;;;;;11.25;100.00;99202.25;5168273;28;20487;-77
2023/12/24 10:23:19;;;;;;;0.30;0.30;;;;;;;11.23;100.00;99177.13;5164981;28;20041;-77
2023/12/24 10:26:04;;;;;;;0.30;0.22;;;;;;;11.30;100.00;99176.66;5167583;28;20026;-77
2023/12/24 10:28:46;;;;;;;0.70;0.40;;;;;;;11.36;100.00;99173.69;5169649;28;20073;-76
2023/12/24 10:31:17;;;;;;;0.65;0.30;;;;;;;11.27;100.00;99171.63;5172344;28;20331;-78
2023/12/24 10:33:48;;;;;;;0.20;0.20;;;;;;;11.27;100.00;99162.94;5173485;28;20507;-77
2023/12/24 10:36:21;;;;;;;1.38;0.50;;;;;;;11.29;100.00;99148.81;5173446;28;20388;-77
2023/12/24 10:38:51;;;;;;;0.40;0.20;;;;;;;11.24;100.00;99163.97;5170242;28;20030;-77
2023/12/24 10:41:22;;;;;;;0.30;0.22;;;;;;;11.22;100.00;99158.00;5173865;28;20075;-77
2023/12/24 10:43:52;;;;;;;1.40;0.40;;;;;;;11.29;100.00;99161.06;5173435;28;20037;-77
2023/12/24 10:46:22;;;;;;;1.02;0.38;;;;;;;11.31;100.00;99154.81;5166927;28;20395;-77
2023/12/24 10:48:52;;;;;;;1.88;0.57;;;;;;;11.30;100.00;99163.59;5172789;28;20057;-77
2023/12/24 10:51:23;;;;;;;1.73;0.70;;;;;;;11.37;100.00;99145.75;5170252;28;20046;-76
2023/12/24 10:53:53;;;;;;;1.50;0.50;;;;;;;11.33;100.00;99144.25;5171442;28;20041;-77
2023/12/24 10:56:31;;;;;;;2.45;0.70;;;;;;;11.31;100.00;99149.56;5162582;28;20113;-77
2023/12/24 10:59:10;;;;;;;0.68;0.40;;;;;;;11.36;100.00;99146.69;5169299;28;20025;-77
2023/12/24 11:01:40;;;;;;;1.20;0.30;;;;;;;11.38;100.00;99145.66;5170202;28;20038;-77
2023/12/24 11:04:10;;;;;;;0.90;0.40;;;;;;;11.43;100.00;99140.16;5169025;28;20542;-77
2023/12/24 11:06:41;;;;;;;2.00;0.32;;;;;;;11.50;100.00;99134.44;5173008;28;20084;-77
2023/12/24 11:09:14;;;;;;;0.60;0.40;;;;;;;11.57;100.00;99130.53;5171221;28;20026;-77
2023/12/24 11:11:54;;;;;;;0.30;0.30;;;;;;;11.53;100.00;99126.41;5163375;28;20727;-77
2023/12/24 11:14:44;;;;;;;0.40;0.30;;;;;;;11.53;100.00;99129.03;5168611;28;20030;-77
2023/12/24 11:17:47;;;;;;;0.40;0.40;;;;;;;11.58;100.00;99115.69;5165095;28;20037;-76
2023/12/24 11:20:20;;;;;;;0.75;0.38;;;;;;;11.62;100.00;99123.22;5164394;28;20044;-77
2023/12/24 11:23:06;;;;;;;0.55;0.40;;;;;;;11.62;100.00;99112.75;5170350;28;20052;-75
2023/12/24 11:25:39;;;;;;;0.98;0.40;;;;;;;11.66;100.00;99119.50;5170197;28;20022;-77
2023/12/24 11:28:36;;;;;;;1.08;0.52;;;;;;;11.64;100.00;99099.59;5169863;28;20561;-77
2023/12/24 11:31:07;;;;;;;0.73;0.55;;;;;;;11.65;100.00;99091.63;5174066;28;20069;-77
2023/12/24 11:33:46;;;;;;;1.35;0.60;;;;;;;11.63;100.00;99103.16;5173227;28;20118;-76
2023/12/24 11:36:18;;;;;;;0.88;0.40;;;;;;;11.66;100.00;99098.56;5170735;28;20022;-77
2023/12/24 11:38:58;;;;;;;0.57;0.32;;;;;;;11.65;100.00;99102.09;5167813;28;20030;-76
2023/12/24 11:41:29;;;;;;;0.70;0.40;;;;;;;11.76;100.00;99086.56;5171720;28;20026;-77
2023/12/24 11:44:01;;;;;;;1.45;0.50;;;;;;;11.66;100.00;99095.09;5170713;28;20030;-77
2023/12/24 11:46:35;;;;;;;0.63;0.43;;;;;;;11.67;100.00;99081.06;5164368;28;20033;-77
2023/12/24 11:49:06;;;;;;;0.68;0.40;;;;;;;11.66;100.00;99067.16;5163430;28;20270;-77
2023/12/24 11:51:36;;;;;;;1.08;0.40;;;;;;;11.71;100.00;99072.94;5163454;28;20473;-75